Terminal Aerodrome Forecast
Issued by NWS

Home | Current Version | Previous Version | Text Only | Print | Product List | Glossary On
Versions: 1 2 3 4 5 6 7 8 9 10 11 12 13 14
101
FTUS41 KLWX 261127
TAFMTN
TAF
KMTN 261127Z 2612/2712 VRB03KT P6SM SCT150
     FM261700 17007KT P6SM SCT090
     FM262200 17009KT P6SM VCTS BKN050CB
     FM270100 17007KT P6SM SCT050
     FM270800 VRB03KT P6SM BKN090=

USA.gov is the U.S. government's official web portal to all federal, state and local government web resources and services.